createdAt,value
2023-04-10T00:01:53.465Z,5.62
2023-04-10T00:04:20.097Z,5.42
2023-04-10T00:06:48.958Z,5.50
2023-04-10T00:09:15.499Z,5.49
2023-04-10T00:11:42.084Z,5.28
2023-04-10T00:14:08.566Z,5.37
2023-04-10T00:16:35.159Z,5.40
2023-04-10T00:19:01.657Z,5.41
2023-04-10T00:21:28.315Z,5.41
2023-04-10T00:23:54.900Z,5.23
2023-04-10T00:26:22.384Z,5.40
2023-04-10T00:28:48.841Z,5.37
2023-04-10T00:31:15.526Z,5.40
2023-04-10T00:33:42.065Z,5.41
2023-04-10T00:36:08.691Z,5.35
2023-04-10T00:38:36.209Z,5.32
2023-04-10T00:41:02.708Z,5.21
2023-04-10T00:43:29.188Z,5.17
2023-04-10T00:45:55.985Z,5.24
2023-04-10T00:48:22.528Z,5.20
2023-04-10T00:50:49.063Z,5.19
2023-04-10T00:53:15.716Z,5.21
2023-04-10T00:55:42.277Z,5.27
2023-04-10T00:58:08.843Z,5.32
2023-04-10T01:00:35.374Z,5.35
2023-04-10T01:03:02.244Z,4.85
2023-04-10T01:05:35.662Z,5.37
2023-04-10T01:08:19.876Z,5.34
2023-04-10T01:11:02.075Z,5.35
2023-04-10T01:13:35.327Z,5.24
2023-04-10T01:16:06.146Z,5.14
2023-04-10T01:18:44.748Z,5.03
2023-04-10T01:21:12.447Z,4.93
2023-04-10T01:24:04.219Z,5.00
2023-04-10T01:26:47.758Z,4.67
2023-04-10T01:29:19.676Z,4.73
2023-04-10T01:31:55.232Z,4.78
2023-04-10T01:34:24.223Z,4.62
2023-04-10T01:36:54.296Z,4.63
2023-04-10T01:39:22.029Z,4.57
2023-04-10T01:41:51.917Z,4.50
2023-04-10T01:44:19.729Z,4.43
2023-04-10T01:46:48.605Z,4.38
2023-04-10T01:49:15.389Z,4.41
2023-04-10T01:51:42.429Z,4.43
2023-04-10T01:54:09.158Z,4.38
2023-04-10T01:56:35.994Z,4.31
2023-04-10T01:59:03.714Z,4.28
2023-04-10T02:01:30.716Z,4.20
2023-04-10T02:03:58.726Z,4.14
2023-04-10T02:06:41.925Z,4.10
2023-04-10T02:09:19.270Z,4.06
2023-04-10T02:11:54.371Z,4.04
2023-04-10T02:14:22.177Z,3.83
2023-04-10T02:16:52.919Z,3.96
2023-04-10T02:19:19.690Z,4.01
2023-04-10T02:21:47.297Z,4.04
2023-04-10T02:24:13.820Z,4.05
2023-04-10T02:26:51.694Z,4.09
2023-04-10T02:29:18.699Z,4.14
2023-04-10T02:31:46.152Z,4.10
2023-04-10T02:34:12.825Z,4.07
2023-04-10T02:36:39.867Z,4.07
2023-04-10T02:39:06.872Z,4.05
2023-04-10T02:41:33.356Z,4.06
2023-04-10T02:43:59.765Z,4.02
2023-04-10T02:46:26.388Z,3.94
2023-04-10T02:48:56.101Z,3.85
2023-04-10T02:51:22.606Z,3.86
2023-04-10T02:53:49.270Z,3.81
2023-04-10T02:56:15.681Z,3.77
2023-04-10T02:58:46.037Z,3.69
2023-04-10T03:01:12.812Z,3.60
2023-04-10T03:03:39.689Z,3.58
2023-04-10T03:06:08.029Z,3.55
2023-04-10T03:08:34.709Z,3.51
2023-04-10T03:11:01.280Z,3.35
2023-04-10T03:13:27.792Z,3.42
2023-04-10T03:15:54.372Z,3.36
2023-04-10T03:18:21.048Z,3.26
2023-04-10T03:20:47.697Z,3.30
2023-04-10T03:23:14.294Z,3.25
2023-04-10T03:25:41.285Z,3.25
2023-04-10T03:28:07.834Z,3.21
2023-04-10T03:30:36.957Z,3.16
2023-04-10T03:33:03.628Z,3.17
2023-04-10T03:35:30.145Z,3.16
2023-04-10T03:37:56.544Z,3.07
2023-04-10T03:40:23.070Z,3.09
2023-04-10T03:42:49.619Z,3.07
2023-04-10T03:45:16.216Z,3.07
2023-04-10T03:47:42.938Z,3.14
2023-04-10T03:50:09.950Z,3.09
2023-04-10T03:52:36.553Z,3.06
2023-04-10T03:55:03.019Z,3.00
2023-04-10T03:57:29.543Z,2.96
2023-04-10T03:59:56.365Z,2.92
2023-04-10T04:02:23.163Z,2.91
2023-04-10T04:04:49.924Z,2.88
2023-04-10T04:07:16.430Z,2.88
2023-04-10T04:09:42.950Z,2.86
2023-04-10T04:12:09.542Z,2.78
2023-04-10T04:14:36.058Z,2.88
2023-04-10T04:17:02.872Z,2.89
2023-04-10T04:19:29.881Z,2.88
2023-04-10T04:21:56.485Z,2.95
2023-04-10T04:24:23.026Z,2.90
2023-04-10T04:26:49.694Z,2.85
2023-04-10T04:29:16.378Z,2.68
2023-04-10T04:31:42.927Z,2.75
2023-04-10T04:34:09.422Z,2.73
2023-04-10T04:36:35.975Z,2.71
2023-04-10T04:39:02.610Z,2.68
2023-04-10T04:41:32.162Z,2.66
2023-04-10T04:43:59.981Z,2.62
2023-04-10T04:46:26.621Z,2.52
2023-04-10T04:48:53.150Z,2.37
2023-04-10T04:51:19.590Z,2.55
2023-04-10T04:53:46.080Z,2.52
2023-04-10T04:56:12.565Z,2.52
2023-04-10T04:58:39.022Z,2.56
2023-04-10T05:01:06.066Z,2.57
2023-04-10T05:03:32.907Z,2.61
2023-04-10T05:05:59.693Z,2.68
2023-04-10T05:08:26.510Z,2.51
2023-04-10T05:10:53.030Z,2.76
2023-04-10T05:13:19.520Z,2.78
2023-04-10T05:15:46.269Z,2.79
2023-04-10T05:18:14.084Z,2.81
2023-04-10T05:20:40.954Z,2.83
2023-04-10T05:23:07.416Z,2.87
2023-04-10T05:25:33.972Z,2.91
2023-04-10T05:28:00.686Z,2.95
2023-04-10T05:30:27.108Z,3.05
2023-04-10T05:32:53.685Z,3.11
2023-04-10T05:35:20.268Z,3.18
2023-04-10T05:37:46.724Z,3.27
2023-04-10T05:40:13.184Z,3.37
2023-04-10T05:42:39.654Z,3.44
2023-04-10T05:45:06.835Z,3.54
2023-04-10T05:47:33.445Z,3.61
2023-04-10T05:49:59.989Z,3.67
2023-04-10T05:52:26.713Z,3.79
2023-04-10T05:54:53.149Z,3.88
2023-04-10T05:57:19.611Z,3.93
2023-04-10T05:59:46.140Z,4.08
2023-04-10T06:02:12.603Z,4.03
2023-04-10T06:04:39.378Z,4.27
2023-04-10T06:07:06.108Z,4.34
2023-04-10T06:09:32.629Z,4.41
2023-04-10T06:11:59.126Z,4.50
2023-04-10T06:14:26.041Z,4.61
2023-04-10T06:16:52.543Z,4.56
2023-04-10T06:19:19.006Z,4.74
2023-04-10T06:21:45.559Z,4.67
2023-04-10T06:24:12.928Z,4.90
2023-04-10T06:26:39.875Z,4.97
2023-04-10T06:29:06.400Z,5.04
2023-04-10T06:31:33.988Z,5.15
2023-04-10T06:34:00.520Z,5.24
2023-04-10T06:36:27.729Z,5.31
2023-04-10T06:38:54.274Z,5.40
2023-04-10T06:41:21.112Z,5.44
2023-04-10T06:43:47.927Z,5.53
2023-04-10T06:46:16.031Z,5.73
2023-04-10T06:48:44.381Z,5.76
2023-04-10T06:51:12.251Z,5.97
2023-04-10T06:53:39.864Z,6.09
2023-04-10T06:56:07.058Z,6.19
2023-04-10T06:58:33.629Z,6.39
2023-04-10T07:01:04.404Z,6.61
2023-04-10T07:03:32.596Z,6.62
2023-04-10T07:05:59.845Z,7.03
2023-04-10T07:08:26.282Z,7.18
2023-04-10T07:10:52.827Z,7.51
2023-04-10T07:13:19.301Z,7.94
2023-04-10T07:15:45.885Z,8.43
2023-04-10T07:18:12.429Z,8.86
2023-04-10T07:20:38.869Z,9.30
2023-04-10T07:23:05.946Z,9.52
2023-04-10T07:25:32.375Z,10.06
2023-04-10T07:27:58.866Z,10.44
2023-04-10T07:30:25.999Z,10.86
2023-04-10T07:32:52.693Z,10.91
2023-04-10T07:35:20.263Z,10.93
2023-04-10T07:37:51.488Z,10.90
2023-04-10T07:40:18.158Z,11.29
2023-04-10T07:42:44.649Z,11.49
2023-04-10T07:45:11.430Z,11.52
2023-04-10T07:47:38.353Z,11.59
2023-04-10T07:50:05.548Z,11.60
2023-04-10T07:52:32.132Z,11.94
2023-04-10T07:55:01.964Z,12.11
2023-04-10T07:57:28.545Z,12.25
2023-04-10T07:59:55.087Z,12.58
2023-04-10T08:02:21.939Z,12.67
2023-04-10T08:04:48.731Z,13.01
2023-04-10T08:07:15.527Z,13.04
2023-04-10T08:09:42.063Z,13.34
2023-04-10T08:12:08.549Z,13.57
2023-04-10T08:14:35.018Z,13.86
2023-04-10T08:17:01.582Z,14.04
2023-04-10T08:19:28.226Z,14.25
2023-04-10T08:21:54.707Z,14.38
2023-04-10T08:24:22.947Z,14.35
2023-04-10T08:26:49.756Z,14.50
2023-04-10T08:29:16.350Z,14.34
2023-04-10T08:31:42.828Z,14.52
2023-04-10T08:34:09.325Z,14.67
2023-04-10T08:36:36.154Z,14.80
2023-04-10T08:39:02.790Z,15.05
2023-04-10T08:41:29.424Z,15.06
2023-04-10T08:43:57.382Z,15.29
2023-04-10T08:46:26.196Z,15.47
2023-04-10T08:49:02.819Z,15.82
2023-04-10T08:51:36.656Z,15.94
2023-04-10T08:54:08.423Z,15.95
2023-04-10T08:56:36.174Z,16.05
2023-04-10T08:59:03.554Z,16.15
2023-04-10T09:01:31.170Z,16.25
2023-04-10T09:03:58.536Z,16.54
2023-04-10T09:06:26.065Z,16.72
2023-04-10T09:08:52.693Z,16.94
2023-04-10T09:11:19.461Z,17.01
2023-04-10T09:13:46.939Z,17.08
2023-04-10T09:16:13.933Z,17.35
2023-04-10T09:18:43.418Z,17.43
2023-04-10T09:21:13.505Z,17.55
2023-04-10T09:23:41.812Z,17.47
2023-04-10T09:26:28.336Z,17.76
2023-04-10T09:29:09.203Z,17.77
2023-04-10T09:31:37.113Z,17.77
2023-04-10T09:34:17.663Z,17.88
2023-04-10T09:36:53.041Z,17.84
2023-04-10T09:39:19.609Z,17.82
2023-04-10T09:41:55.313Z,18.03
2023-04-10T09:44:36.432Z,18.29
2023-04-10T09:47:18.619Z,18.44
2023-04-10T09:49:55.985Z,18.33
2023-04-10T09:52:27.041Z,18.28
2023-04-10T09:54:55.436Z,18.23
2023-04-10T09:57:23.040Z,18.24
2023-04-10T09:59:54.964Z,18.17
2023-04-10T10:02:23.672Z,18.26
2023-04-10T10:04:51.018Z,18.46
2023-04-10T10:07:19.439Z,18.77
2023-04-10T10:09:48.237Z,18.96
2023-04-10T10:12:44.202Z,18.93
2023-04-10T10:15:19.670Z,19.23
2023-04-10T10:18:25.185Z,19.56
2023-04-10T10:20:52.307Z,19.46
2023-04-10T10:23:19.691Z,19.29
2023-04-10T10:25:46.778Z,19.35
2023-04-10T10:28:14.658Z,19.61
2023-04-10T10:30:42.262Z,19.75
2023-04-10T10:33:09.189Z,19.92
2023-04-10T10:35:36.438Z,19.85
2023-04-10T10:38:04.327Z,20.15
2023-04-10T10:40:41.491Z,20.05
2023-04-10T10:43:32.086Z,20.05
2023-04-10T10:46:13.253Z,20.03
2023-04-10T10:48:39.778Z,20.10
2023-04-10T10:51:06.686Z,20.32
2023-04-10T10:53:42.716Z,20.42
2023-04-10T10:56:18.451Z,20.52
2023-04-10T10:58:57.535Z,20.75
2023-04-10T11:01:24.500Z,20.88
2023-04-10T11:03:51.232Z,20.76
2023-04-10T11:06:19.683Z,20.74
2023-04-10T11:08:50.081Z,20.75
2023-04-10T11:11:17.727Z,20.75
2023-04-10T11:13:50.207Z,20.75
2023-04-10T11:16:16.916Z,20.75
2023-04-10T11:18:47.313Z,21.16
2023-04-10T11:21:19.989Z,21.25
2023-04-10T11:24:01.565Z,21.03
2023-04-10T11:26:42.754Z,20.94
2023-04-10T11:29:27.674Z,20.96
2023-04-10T11:31:59.417Z,21.08
2023-04-10T11:34:27.658Z,21.24
2023-04-10T11:36:54.766Z,21.12
2023-04-10T11:39:21.500Z,20.99
2023-04-10T11:41:50.430Z,20.88
2023-04-10T11:44:21.004Z,20.88
2023-04-10T11:46:47.920Z,21.06
2023-04-10T11:49:22.819Z,21.09
2023-04-10T11:51:51.086Z,21.15
2023-04-10T11:54:19.445Z,21.23
2023-04-10T11:57:01.070Z,21.07
2023-04-10T11:59:27.911Z,21.16
2023-04-10T12:02:05.380Z,21.53
2023-04-10T12:04:32.284Z,21.55
2023-04-10T12:06:59.175Z,21.46
2023-04-10T12:09:26.267Z,21.49
2023-04-10T12:12:05.572Z,21.34
2023-04-10T12:14:38.176Z,21.04
2023-04-10T12:17:07.021Z,20.87
2023-04-10T12:19:34.192Z,20.92
2023-04-10T12:22:04.086Z,20.85
2023-04-10T12:24:45.054Z,21.04
2023-04-10T12:27:21.863Z,21.12
2023-04-10T12:29:49.939Z,20.99
2023-04-10T12:32:16.718Z,21.14
2023-04-10T12:34:52.687Z,20.98
2023-04-10T12:37:20.083Z,21.56
2023-04-10T12:39:46.849Z,21.76
2023-04-10T12:42:21.343Z,21.82
2023-04-10T12:45:01.335Z,21.98
2023-04-10T12:47:29.359Z,21.56
2023-04-10T12:50:12.080Z,21.29
2023-04-10T12:52:43.009Z,21.08
2023-04-10T12:55:12.704Z,21.05
2023-04-10T12:57:43.079Z,21.03
2023-04-10T13:00:17.797Z,20.93
2023-04-10T13:02:45.148Z,20.60
2023-04-10T13:05:12.363Z,20.34
2023-04-10T13:07:39.596Z,19.76
2023-04-10T13:10:07.386Z,19.69
2023-04-10T13:12:36.160Z,19.77
2023-04-10T13:15:02.936Z,19.58
2023-04-10T13:17:29.550Z,19.61
2023-04-10T13:19:56.033Z,19.87
2023-04-10T13:22:22.746Z,20.03
2023-04-10T13:24:49.301Z,19.96
2023-04-10T13:27:16.016Z,19.90
2023-04-10T13:29:43.596Z,19.87
2023-04-10T13:32:10.752Z,19.94
2023-04-10T13:34:37.299Z,19.82
2023-04-10T13:37:03.860Z,19.61
2023-04-10T13:39:31.450Z,19.11
2023-04-10T13:41:58.938Z,18.90
2023-04-10T13:44:25.613Z,18.79
2023-04-10T13:46:52.292Z,18.77
2023-04-10T13:49:20.313Z,18.80
2023-04-10T13:51:49.647Z,18.53
2023-04-10T13:54:20.073Z,18.67
2023-04-10T13:56:46.853Z,18.66
2023-04-10T13:59:13.808Z,18.50
2023-04-10T14:01:40.424Z,18.42
2023-04-10T14:04:07.163Z,18.47
2023-04-10T14:06:34.203Z,18.40
2023-04-10T14:09:00.911Z,18.29
2023-04-10T14:11:27.361Z,18.45
2023-04-10T14:13:53.903Z,18.56
2023-04-10T14:16:20.596Z,18.48
2023-04-10T14:18:47.263Z,18.36
2023-04-10T14:21:13.794Z,18.38
2023-04-10T14:23:41.994Z,18.22
2023-04-10T14:26:08.596Z,18.24
2023-04-10T14:28:35.499Z,18.29
2023-04-10T14:31:02.022Z,18.05
2023-04-10T14:33:28.845Z,18.13
2023-04-10T14:35:55.597Z,17.79
2023-04-10T14:38:22.161Z,17.90
2023-04-10T14:40:50.290Z,17.76
2023-04-10T14:43:19.289Z,17.90
2023-04-10T14:45:45.996Z,17.74
2023-04-10T14:48:13.311Z,17.89
2023-04-10T14:50:40.091Z,17.84
2023-04-10T14:53:09.502Z,17.72
2023-04-10T14:55:37.082Z,17.82
2023-04-10T14:58:04.050Z,17.88
2023-04-10T15:00:30.624Z,17.76
2023-04-10T15:02:57.471Z,17.58
2023-04-10T15:05:25.517Z,17.61
2023-04-10T15:07:52.260Z,17.64
2023-04-10T15:10:18.884Z,17.67
2023-04-10T15:12:45.411Z,17.64
2023-04-10T15:15:11.979Z,17.66
2023-04-10T15:17:38.563Z,17.68
2023-04-10T15:20:05.788Z,17.54
2023-04-10T15:22:32.392Z,17.64
2023-04-10T15:24:58.968Z,17.59
2023-04-10T15:27:25.527Z,17.40
2023-04-10T15:29:52.118Z,17.57
2023-04-10T15:32:18.691Z,17.55
2023-04-10T15:34:45.334Z,17.44
2023-04-10T15:37:11.962Z,17.44
2023-04-10T15:39:38.656Z,17.47
2023-04-10T15:42:07.440Z,17.31
2023-04-10T15:44:33.915Z,17.12
2023-04-10T15:47:00.421Z,17.23
2023-04-10T15:49:36.994Z,17.02
2023-04-10T15:52:07.968Z,16.96
2023-04-10T15:54:35.012Z,17.03
2023-04-10T15:57:02.339Z,16.96
2023-04-10T15:59:29.352Z,16.93
2023-04-10T16:01:56.136Z,16.83
2023-04-10T16:04:23.022Z,16.94
2023-04-10T16:06:49.837Z,16.94
2023-04-10T16:09:25.398Z,16.91
2023-04-10T16:11:53.402Z,16.98
2023-04-10T16:14:20.185Z,17.02
2023-04-10T16:16:46.664Z,16.88
2023-04-10T16:19:13.197Z,16.78
2023-04-10T16:21:40.119Z,16.94
2023-04-10T16:24:06.832Z,16.89
2023-04-10T16:26:33.965Z,16.86
2023-04-10T16:29:00.866Z,16.84
2023-04-10T16:31:27.507Z,16.79
2023-04-10T16:33:54.186Z,16.69
2023-04-10T16:36:20.752Z,16.59
2023-04-10T16:38:49.727Z,16.65
2023-04-10T16:41:20.771Z,16.50
2023-04-10T16:43:47.716Z,16.49
2023-04-10T16:46:14.378Z,16.22
2023-04-10T16:48:41.061Z,16.37
2023-04-10T16:51:09.516Z,16.40
2023-04-10T16:53:36.253Z,16.37
2023-04-10T16:56:05.194Z,16.14
2023-04-10T16:58:33.843Z,16.24
2023-04-10T17:01:00.635Z,16.02
2023-04-10T17:03:27.385Z,16.15
2023-04-10T17:05:53.923Z,16.00
2023-04-10T17:08:20.595Z,16.06
2023-04-10T17:10:47.108Z,15.83
2023-04-10T17:13:13.640Z,15.92
2023-04-10T17:15:40.284Z,15.88
2023-04-10T17:18:06.782Z,15.87
2023-04-10T17:20:36.598Z,15.70
2023-04-10T17:23:03.177Z,15.82
2023-04-10T17:25:30.137Z,15.78
2023-04-10T17:27:57.243Z,15.70
2023-04-10T17:30:23.861Z,15.64
2023-04-10T17:32:50.418Z,15.42
2023-04-10T17:35:17.050Z,15.51
2023-04-10T17:37:43.467Z,15.43
2023-04-10T17:40:11.089Z,15.36
2023-04-10T17:42:37.607Z,15.31
2023-04-10T17:45:04.606Z,15.19
2023-04-10T17:47:31.784Z,15.05
2023-04-10T17:49:58.335Z,15.11
2023-04-10T17:52:24.949Z,15.04
2023-04-10T17:54:51.378Z,14.96
2023-04-10T17:57:18.005Z,14.87
2023-04-10T17:59:44.537Z,14.66
2023-04-10T18:02:11.162Z,14.72
2023-04-10T18:04:37.690Z,14.65
2023-04-10T18:07:04.252Z,14.57
2023-04-10T18:09:30.742Z,14.46
2023-04-10T18:11:57.398Z,14.44
2023-04-10T18:14:23.829Z,14.42
2023-04-10T18:16:50.358Z,14.39
2023-04-10T18:19:16.889Z,14.24
2023-04-10T18:21:43.929Z,14.22
2023-04-10T18:24:13.990Z,14.18
2023-04-10T18:26:40.772Z,13.97
2023-04-10T18:29:07.740Z,14.01
2023-04-10T18:31:34.344Z,14.02
2023-04-10T18:34:08.032Z,13.97
2023-04-10T18:36:35.064Z,13.84
2023-04-10T18:39:01.590Z,13.83
2023-04-10T18:41:28.111Z,13.86
2023-04-10T18:44:04.249Z,13.84
2023-04-10T18:46:32.610Z,13.78
2023-04-10T18:49:00.704Z,13.74
2023-04-10T18:51:27.775Z,13.63
2023-04-10T18:53:54.452Z,13.72
2023-04-10T18:56:21.050Z,13.64
2023-04-10T18:58:49.865Z,13.68
2023-04-10T19:01:17.873Z,13.68
2023-04-10T19:03:47.750Z,13.62
2023-04-10T19:06:17.304Z,13.49
2023-04-10T19:08:43.773Z,13.48
2023-04-10T19:11:10.444Z,13.59
2023-04-10T19:13:37.007Z,13.51
2023-04-10T19:16:04.523Z,13.41
2023-04-10T19:18:31.541Z,13.50
2023-04-10T19:20:59.295Z,13.40
2023-04-10T19:23:26.207Z,13.37
2023-04-10T19:25:54.041Z,13.37
2023-04-10T19:28:20.923Z,13.45
2023-04-10T19:30:47.391Z,13.28
2023-04-10T19:33:14.067Z,13.35
2023-04-10T19:35:40.703Z,13.39
2023-04-10T19:38:07.182Z,13.34
2023-04-10T19:40:33.660Z,13.30
2023-04-10T19:43:01.884Z,13.17
2023-04-10T19:45:29.319Z,13.30
2023-04-10T19:47:56.788Z,13.22
2023-04-10T19:50:23.748Z,13.18
2023-04-10T19:52:51.494Z,13.30
2023-04-10T19:55:19.118Z,13.30
2023-04-10T19:57:45.909Z,13.27
2023-04-10T20:00:13.063Z,13.26
2023-04-10T20:02:40.061Z,13.23
2023-04-10T20:05:07.179Z,13.22
2023-04-10T20:07:33.701Z,13.19
2023-04-10T20:10:02.625Z,13.08
2023-04-10T20:12:35.120Z,13.13
2023-04-10T20:15:02.482Z,13.11
2023-04-10T20:17:29.548Z,12.87
2023-04-10T20:19:56.453Z,13.07
2023-04-10T20:22:23.031Z,13.03
2023-04-10T20:24:49.514Z,13.05
2023-04-10T20:27:16.018Z,13.00
2023-04-10T20:29:42.656Z,13.06
2023-04-10T20:32:09.719Z,13.04
2023-04-10T20:34:36.720Z,13.05
2023-04-10T20:37:03.480Z,13.03
2023-04-10T20:39:30.129Z,12.89
2023-04-10T20:41:57.384Z,12.93
2023-04-10T20:44:23.902Z,12.92
2023-04-10T20:46:50.785Z,12.85
2023-04-10T20:49:17.554Z,13.04
2023-04-10T20:51:44.363Z,13.06
2023-04-10T20:54:11.799Z,13.06
2023-04-10T20:56:43.478Z,13.08
2023-04-10T20:59:11.184Z,13.01
2023-04-10T21:01:38.348Z,13.05
2023-04-10T21:04:05.410Z,13.01
2023-04-10T21:06:33.215Z,12.99
2023-04-10T21:08:59.791Z,12.86
2023-04-10T21:11:27.414Z,12.94
2023-04-10T21:13:54.279Z,12.91
2023-04-10T21:16:21.075Z,12.85
2023-04-10T21:18:47.915Z,12.82
2023-04-10T21:21:14.691Z,12.78
2023-04-10T21:23:41.250Z,12.77
2023-04-10T21:26:07.848Z,12.65
2023-04-10T21:28:34.413Z,12.75
2023-04-10T21:31:01.003Z,12.75
2023-04-10T21:33:27.496Z,12.73
2023-04-10T21:35:54.030Z,12.64
2023-04-10T21:38:20.823Z,12.76
2023-04-10T21:40:51.421Z,12.74
2023-04-10T21:43:18.308Z,12.74
2023-04-10T21:45:44.844Z,12.72
2023-04-10T21:48:11.451Z,12.70
2023-04-10T21:50:38.008Z,12.68
2023-04-10T21:53:04.568Z,12.66
2023-04-10T21:55:31.039Z,12.65
2023-04-10T21:57:57.714Z,12.60
2023-04-10T22:00:24.382Z,12.61
2023-04-10T22:02:51.839Z,12.66
2023-04-10T22:05:18.523Z,12.69
2023-04-10T22:07:45.012Z,12.71
2023-04-10T22:10:11.571Z,12.73
2023-04-10T22:12:38.124Z,12.74
2023-04-10T22:15:06.707Z,12.75
2023-04-10T22:17:33.762Z,12.77
2023-04-10T22:20:00.607Z,12.61
2023-04-10T22:22:27.014Z,12.76
2023-04-10T22:24:53.477Z,12.74
2023-04-10T22:27:19.998Z,12.71
2023-04-10T22:29:56.275Z,12.71
2023-04-10T22:32:29.075Z,12.69
2023-04-10T22:34:55.718Z,12.51
2023-04-10T22:37:22.272Z,12.67
2023-04-10T22:39:48.823Z,12.67
2023-04-10T22:42:15.775Z,12.67
2023-04-10T22:44:42.299Z,12.64
2023-04-10T22:47:08.696Z,12.63
2023-04-10T22:49:35.441Z,12.62
2023-04-10T22:52:01.991Z,12.59
2023-04-10T22:54:29.375Z,12.61
2023-04-10T22:56:57.921Z,12.57
2023-04-10T22:59:24.417Z,12.59
2023-04-10T23:01:51.443Z,12.34
2023-04-10T23:04:18.282Z,12.40
2023-04-10T23:06:44.862Z,12.52
2023-04-10T23:09:11.668Z,12.45
2023-04-10T23:11:38.412Z,12.51
2023-04-10T23:14:04.879Z,12.39
2023-04-10T23:16:31.404Z,12.49
2023-04-10T23:18:58.003Z,12.49
2023-04-10T23:21:24.503Z,12.43
2023-04-10T23:23:51.014Z,12.45
2023-04-10T23:26:17.453Z,12.42
2023-04-10T23:28:43.900Z,12.21
2023-04-10T23:31:10.414Z,12.35
2023-04-10T23:33:36.888Z,12.36
2023-04-10T23:36:03.678Z,12.30
2023-04-10T23:38:30.112Z,12.32
2023-04-10T23:40:56.628Z,12.31
2023-04-10T23:43:23.157Z,12.32
2023-04-10T23:45:49.658Z,12.33
2023-04-10T23:48:16.251Z,12.29
2023-04-10T23:50:42.766Z,12.25
2023-04-10T23:53:09.322Z,12.19
2023-04-10T23:55:36.172Z,12.17
2023-04-10T23:58:02.890Z,12.07
